createdAt,value
2018-07-10T00:04:17.404Z,22.20
2018-07-10T00:06:59.732Z,22.20
2018-07-10T00:14:00.904Z,22.40
2018-07-10T00:16:28.019Z,22.20
2018-07-10T00:18:55.822Z,22.00
2018-07-10T00:21:22.948Z,22.00
2018-07-10T00:23:50.300Z,22.10
2018-07-10T00:26:17.452Z,22.00
2018-07-10T00:28:45.227Z,22.00
2018-07-10T00:31:12.852Z,22.00
2018-07-10T00:33:40.182Z,22.00
2018-07-10T00:38:45.899Z,22.20
2018-07-10T00:41:13.008Z,22.30
2018-07-10T00:46:07.176Z,22.20
2018-07-10T00:48:34.323Z,22.00
2018-07-10T00:51:01.382Z,21.80
2018-07-10T00:53:28.516Z,21.70
2018-07-10T00:55:55.617Z,21.60
2018-07-10T00:58:22.862Z,21.60
2018-07-10T01:00:50.931Z,21.60
2018-07-10T01:03:19.142Z,21.60
2018-07-10T01:05:46.197Z,21.60
2018-07-10T01:08:13.293Z,21.70
2018-07-10T01:10:40.959Z,21.90
2018-07-10T01:13:08.006Z,21.90
2018-07-10T01:15:35.064Z,21.90
2018-07-10T01:20:29.325Z,22.00
2018-07-10T01:22:56.502Z,22.10
2018-07-10T01:25:24.352Z,22.00
2018-07-10T01:27:51.553Z,22.00
2018-07-10T01:30:18.632Z,21.90
2018-07-10T01:32:45.742Z,21.90
2018-07-10T01:35:12.884Z,21.70
2018-07-10T01:37:40.122Z,21.70
2018-07-10T01:40:07.204Z,21.80
2018-07-10T01:42:34.272Z,21.70
2018-07-10T01:45:02.133Z,21.80
2018-07-10T01:47:29.383Z,21.80
2018-07-10T01:52:23.920Z,21.80
2018-07-10T01:54:51.001Z,21.70
2018-07-10T01:57:18.112Z,21.70
2018-07-10T01:59:45.248Z,21.60
2018-07-10T02:02:12.384Z,21.50
2018-07-10T02:07:06.500Z,21.40
2018-07-10T02:09:33.686Z,21.40
2018-07-10T02:12:00.768Z,21.30
2018-07-10T02:14:27.854Z,21.20
2018-07-10T02:16:54.930Z,21.30
2018-07-10T02:19:22.033Z,21.50
2018-07-10T02:21:49.105Z,21.60
2018-07-10T02:24:20.028Z,21.40
2018-07-10T02:26:47.188Z,21.30
2018-07-10T02:29:14.317Z,21.30
2018-07-10T02:31:41.384Z,21.30
2018-07-10T02:34:08.972Z,21.20
2018-07-10T02:36:36.320Z,21.20
2018-07-10T02:39:03.792Z,21.30
2018-07-10T02:41:30.871Z,21.30
2018-07-10T02:44:01.188Z,21.20
2018-07-10T02:46:29.648Z,21.20
2018-07-10T02:49:03.404Z,21.10
2018-07-10T02:51:30.767Z,21.10
2018-07-10T02:53:57.920Z,21.10
2018-07-10T02:56:25.048Z,20.90
2018-07-10T02:58:52.419Z,21.10
2018-07-10T03:01:19.770Z,21.00
2018-07-10T03:03:47.851Z,21.10
2018-07-10T03:06:15.121Z,21.10
2018-07-10T03:08:42.406Z,21.10
2018-07-10T03:11:09.648Z,20.90
2018-07-10T03:16:05.287Z,20.90
2018-07-10T03:18:32.631Z,20.80
2018-07-10T03:20:59.824Z,20.70
2018-07-10T03:23:27.184Z,20.60
2018-07-10T03:25:54.334Z,20.50
2018-07-10T03:28:21.629Z,20.50
2018-07-10T03:30:48.736Z,20.50
2018-07-10T03:33:15.820Z,20.40
2018-07-10T03:35:42.891Z,20.40
2018-07-10T03:38:09.976Z,20.30
2018-07-10T03:40:37.097Z,20.50
2018-07-10T03:45:31.546Z,20.50
2018-07-10T03:47:58.777Z,20.40
2018-07-10T03:50:26.696Z,20.30
2018-07-10T03:52:54.017Z,20.20
2018-07-10T03:55:21.101Z,20.20
2018-07-10T03:57:51.729Z,20.20
2018-07-10T04:00:18.796Z,20.20
2018-07-10T04:02:48.832Z,20.20
2018-07-10T04:05:18.587Z,20.00
2018-07-10T04:07:46.316Z,20.00
2018-07-10T04:12:46.106Z,19.80
2018-07-10T04:15:13.225Z,19.80
2018-07-10T04:17:41.888Z,19.70
2018-07-10T04:20:09.295Z,19.70
2018-07-10T04:22:37.999Z,19.80
2018-07-10T04:25:05.131Z,19.80
2018-07-10T04:27:40.710Z,19.80
2018-07-10T04:30:16.335Z,19.70
2018-07-10T04:32:43.419Z,19.70
2018-07-10T04:35:12.467Z,19.60
2018-07-10T04:37:40.582Z,19.50
2018-07-10T04:40:08.016Z,19.50
2018-07-10T04:42:46.061Z,19.50
2018-07-10T04:45:15.689Z,19.50
2018-07-10T04:50:13.228Z,19.60
2018-07-10T04:52:44.079Z,19.70
2018-07-10T04:55:12.273Z,19.80
2018-07-10T04:57:59.056Z,19.60
2018-07-10T05:00:27.097Z,19.50
2018-07-10T05:02:54.709Z,19.00
2018-07-10T05:05:22.707Z,18.80
2018-07-10T05:10:18.020Z,18.50
2018-07-10T05:12:45.396Z,18.60
2018-07-10T05:17:40.689Z,18.60
2018-07-10T05:20:07.748Z,18.50
2018-07-10T05:22:34.813Z,18.50
2018-07-10T05:25:01.957Z,18.50
2018-07-10T05:27:29.201Z,18.50
2018-07-10T05:29:56.420Z,18.40
2018-07-10T05:32:27.597Z,18.30
2018-07-10T05:34:55.163Z,18.30
2018-07-10T05:37:30.960Z,18.20
2018-07-10T05:40:00.158Z,18.10
2018-07-10T05:42:27.232Z,18.10
2018-07-10T05:44:54.364Z,18.20
2018-07-10T05:47:22.866Z,18.10
2018-07-10T05:49:53.004Z,18.10
2018-07-10T05:52:20.155Z,18.10
2018-07-10T05:54:47.238Z,17.80
2018-07-10T05:57:14.602Z,17.80
2018-07-10T06:02:08.996Z,18.00
2018-07-10T06:04:37.630Z,18.00
2018-07-10T06:07:04.688Z,18.00
2018-07-10T06:09:31.799Z,17.90
2018-07-10T06:11:58.872Z,17.90
2018-07-10T06:14:26.240Z,17.90
2018-07-10T06:16:53.298Z,17.80
2018-07-10T06:19:20.514Z,17.60
2018-07-10T06:21:48.416Z,17.70
2018-07-10T06:24:21.127Z,17.80
2018-07-10T06:26:59.201Z,17.80
2018-07-10T06:29:29.336Z,17.90
2018-07-10T06:31:56.648Z,17.80
2018-07-10T06:37:02.834Z,17.70
2018-07-10T06:39:29.948Z,17.80
2018-07-10T06:41:59.109Z,18.00
2018-07-10T06:44:26.332Z,18.00
2018-07-10T06:49:27.396Z,17.90
2018-07-10T06:54:29.139Z,18.10
2018-07-10T06:56:56.472Z,18.10
2018-07-10T06:59:24.304Z,18.30
2018-07-10T07:04:18.540Z,18.50
2018-07-10T07:06:45.649Z,18.50
2018-07-10T07:14:07.041Z,18.70
2018-07-10T07:16:34.156Z,18.70
2018-07-10T07:19:01.281Z,18.60
2018-07-10T07:21:28.319Z,18.60
2018-07-10T07:23:55.546Z,18.70
2018-07-10T07:26:22.700Z,18.60
2018-07-10T07:28:49.844Z,18.60
2018-07-10T07:31:17.455Z,18.70
2018-07-10T07:33:44.605Z,18.90
2018-07-10T07:36:11.720Z,18.80
2018-07-10T07:38:38.899Z,18.70
2018-07-10T07:41:06.010Z,18.60
2018-07-10T07:43:34.213Z,18.80
2018-07-10T07:46:01.284Z,18.90
2018-07-10T07:48:28.487Z,18.90
2018-07-10T07:50:55.640Z,18.70
2018-07-10T07:53:22.769Z,18.80
2018-07-10T07:55:49.944Z,19.00
2018-07-10T07:58:17.110Z,19.10
2018-07-10T08:00:44.233Z,19.30
2018-07-10T08:03:11.479Z,19.30
2018-07-10T08:05:39.793Z,19.30
2018-07-10T08:08:06.979Z,19.10
2018-07-10T08:10:34.181Z,19.10
2018-07-10T08:13:01.537Z,19.20
2018-07-10T08:15:29.305Z,19.30
2018-07-10T08:17:56.499Z,19.20
2018-07-10T08:20:23.962Z,19.30
2018-07-10T08:22:51.288Z,19.30
2018-07-10T08:25:19.349Z,19.40
2018-07-10T08:27:46.433Z,19.50
2018-07-10T08:30:13.577Z,19.50
2018-07-10T08:32:40.939Z,19.40
2018-07-10T08:35:08.059Z,19.20
2018-07-10T08:37:35.281Z,19.20
2018-07-10T08:40:03.394Z,19.30
2018-07-10T08:42:31.094Z,19.30
2018-07-10T08:44:58.244Z,19.50
2018-07-10T08:47:25.445Z,19.60
2018-07-10T08:49:53.649Z,19.80
2018-07-10T08:52:20.828Z,19.80
2018-07-10T08:54:48.377Z,19.70
2018-07-10T08:57:15.548Z,19.60
2018-07-10T08:59:42.694Z,19.70
2018-07-10T09:02:09.925Z,19.60
2018-07-10T09:04:37.048Z,19.50
2018-07-10T09:07:04.622Z,19.70
2018-07-10T09:09:31.811Z,19.80
2018-07-10T09:14:26.272Z,19.50
2018-07-10T09:16:53.432Z,19.40
2018-07-10T09:19:29.287Z,19.30
2018-07-10T09:22:06.680Z,19.50
2018-07-10T09:24:35.592Z,19.60
2018-07-10T09:27:04.644Z,19.40
2018-07-10T09:31:59.069Z,19.60
2018-07-10T09:34:26.298Z,19.70
2018-07-10T09:36:53.519Z,19.80
2018-07-10T09:39:21.300Z,19.80
2018-07-10T09:41:49.041Z,19.60
2018-07-10T09:44:16.298Z,19.60
2018-07-10T09:46:43.443Z,19.60
2018-07-10T09:49:10.634Z,19.70
2018-07-10T09:51:40.038Z,19.80
2018-07-10T09:54:07.177Z,19.90
2018-07-10T09:56:34.380Z,19.90
2018-07-10T09:59:01.507Z,20.00
2018-07-10T10:04:00.628Z,20.00
2018-07-10T10:08:54.836Z,20.00
2018-07-10T10:11:21.998Z,20.10
2018-07-10T10:13:49.248Z,20.10
2018-07-10T10:16:16.422Z,20.10
2018-07-10T10:18:43.565Z,20.20
2018-07-10T10:21:10.717Z,20.40
2018-07-10T10:23:37.875Z,20.40
2018-07-10T10:26:04.984Z,20.40
2018-07-10T10:28:32.104Z,20.40
2018-07-10T10:30:59.336Z,20.30
2018-07-10T10:33:26.482Z,20.30
2018-07-10T10:35:53.619Z,20.10
2018-07-10T10:38:21.751Z,19.80
2018-07-10T10:40:48.894Z,19.90
2018-07-10T10:43:15.993Z,19.70
2018-07-10T10:45:44.141Z,19.30
2018-07-10T10:48:12.726Z,19.30
2018-07-10T10:50:42.615Z,19.40
2018-07-10T10:53:09.762Z,19.50
2018-07-10T10:55:36.860Z,19.80
2018-07-10T11:14:47.536Z,20.60
2018-07-10T11:17:28.100Z,20.40
2018-07-10T11:22:28.375Z,20.50
2018-07-10T11:25:01.513Z,20.80
2018-07-10T11:28:06.190Z,21.00
2018-07-10T11:30:33.579Z,21.00
2018-07-10T11:33:01.922Z,20.90
2018-07-10T11:35:29.232Z,20.80
2018-07-10T11:37:57.997Z,21.20
2018-07-10T11:40:25.482Z,21.40
2018-07-10T11:42:52.574Z,21.50
2018-07-10T11:47:47.047Z,21.10
2018-07-10T11:50:14.300Z,21.10
2018-07-10T11:52:41.626Z,21.00
2018-07-10T11:55:08.708Z,21.00
2018-07-10T11:57:35.935Z,20.80
2018-07-10T12:00:03.317Z,20.70
2018-07-10T12:02:38.984Z,20.60
2018-07-10T12:05:06.135Z,20.60
2018-07-10T12:07:35.117Z,20.80
2018-07-10T12:10:13.730Z,21.00
2018-07-10T12:12:40.911Z,21.60
2018-07-10T12:15:08.012Z,21.90
2018-07-10T12:17:35.202Z,22.10
2018-07-10T12:20:02.553Z,22.20
2018-07-10T12:22:29.881Z,22.20
2018-07-10T12:24:57.016Z,22.10
2018-07-10T12:27:24.215Z,22.30
2018-07-10T12:29:51.738Z,22.70
2018-07-10T12:32:18.903Z,22.80
2018-07-10T12:34:46.131Z,23.20
2018-07-10T12:37:13.441Z,23.30
2018-07-10T12:39:41.197Z,23.20
2018-07-10T12:42:08.266Z,23.10
2018-07-10T12:44:35.381Z,22.60
2018-07-10T12:47:02.482Z,22.10
2018-07-10T12:49:29.735Z,22.00
2018-07-10T12:51:56.902Z,22.00
2018-07-10T12:54:24.041Z,22.10
2018-07-10T12:56:51.122Z,22.20
2018-07-10T12:59:18.551Z,22.00
2018-07-10T13:04:12.778Z,22.30
2018-07-10T13:06:39.878Z,22.30
2018-07-10T13:09:07.096Z,22.60
2018-07-10T13:11:34.204Z,23.20
2018-07-10T13:14:01.298Z,23.30
2018-07-10T13:16:28.357Z,23.10
2018-07-10T13:18:55.508Z,22.90
2018-07-10T13:21:22.737Z,23.00
2018-07-10T13:23:49.834Z,23.30
2018-07-10T13:26:17.404Z,23.20
2018-07-10T13:28:44.540Z,22.80
2018-07-10T13:31:11.641Z,22.40
2018-07-10T13:33:38.734Z,22.20
2018-07-10T13:36:05.823Z,22.20
2018-07-10T13:38:33.121Z,21.80
2018-07-10T13:41:01.202Z,21.50
2018-07-10T13:43:28.372Z,21.30
2018-07-10T13:45:55.468Z,21.40
2018-07-10T13:48:22.588Z,21.60
2018-07-10T13:50:49.702Z,21.50
2018-07-10T13:53:16.841Z,21.30
2018-07-10T13:55:43.968Z,21.10
2018-07-10T14:00:42.048Z,20.70
2018-07-10T14:03:09.353Z,20.60
2018-07-10T14:05:36.415Z,20.60
2018-07-10T14:08:03.578Z,20.60
2018-07-10T14:10:30.670Z,20.60
2018-07-10T14:12:59.017Z,20.60
2018-07-10T14:15:26.246Z,20.50
2018-07-10T14:17:53.629Z,20.50
2018-07-10T14:20:21.637Z,20.50
2018-07-10T14:27:43.193Z,20.40
2018-07-10T14:30:10.624Z,20.40
2018-07-10T14:32:37.961Z,20.60
2018-07-10T14:35:05.328Z,20.90
2018-07-10T14:54:15.437Z,21.50
2018-07-10T14:59:10.190Z,21.40
2018-07-10T15:01:38.167Z,21.30
2018-07-10T15:04:05.574Z,21.30
2018-07-10T15:06:33.101Z,21.30
2018-07-10T15:09:00.797Z,21.20
2018-07-10T15:11:28.022Z,21.10
2018-07-10T15:14:05.216Z,21.00
2018-07-10T15:16:38.035Z,21.00
2018-07-10T15:21:32.446Z,21.00
2018-07-10T15:24:00.604Z,21.10
2018-07-10T15:26:27.703Z,21.00
2018-07-10T15:28:55.220Z,21.00
2018-07-10T15:31:22.568Z,21.00
2018-07-10T15:33:49.993Z,20.90
2018-07-10T15:36:17.177Z,20.90
2018-07-10T15:38:44.940Z,20.90
2018-07-10T15:41:12.478Z,21.10
2018-07-10T15:43:39.936Z,21.10
2018-07-10T15:48:34.324Z,21.00
2018-07-10T15:51:01.639Z,20.80
2018-07-10T15:53:28.833Z,20.70
2018-07-10T15:55:55.973Z,20.70
2018-07-10T15:58:23.101Z,20.70
2018-07-10T16:00:50.592Z,20.60
2018-07-10T16:03:17.855Z,20.70
2018-07-10T16:05:45.324Z,20.60
2018-07-10T16:08:14.952Z,20.60
2018-07-10T16:10:44.467Z,20.60
2018-07-10T16:13:11.785Z,20.70
2018-07-10T16:15:38.966Z,20.60
2018-07-10T16:18:06.135Z,20.60
2018-07-10T16:20:37.097Z,20.60
2018-07-10T16:23:04.673Z,20.60
2018-07-10T16:25:32.857Z,20.60
2018-07-10T16:28:09.721Z,20.50
2018-07-10T16:33:06.107Z,20.50
2018-07-10T16:35:33.570Z,20.40
2018-07-10T16:38:01.534Z,20.50
2018-07-10T16:40:28.814Z,20.60
2018-07-10T16:42:56.727Z,20.60
2018-07-10T16:45:30.648Z,20.60
2018-07-10T16:48:10.575Z,20.60
2018-07-10T16:50:40.517Z,20.60
2018-07-10T16:53:09.056Z,20.60
2018-07-10T16:55:36.416Z,20.60
2018-07-10T16:58:03.787Z,20.60
2018-07-10T17:17:15.159Z,20.50
2018-07-10T17:19:43.212Z,20.50
2018-07-10T17:22:10.801Z,20.50
2018-07-10T17:24:38.226Z,20.50
2018-07-10T17:27:05.849Z,20.50
2018-07-10T17:36:54.636Z,19.90
2018-07-10T17:39:21.780Z,19.80
2018-07-10T17:41:48.976Z,19.70
2018-07-10T17:44:16.167Z,19.60
2018-07-10T17:46:43.303Z,19.70
2018-07-10T17:49:10.506Z,19.70
2018-07-10T17:51:37.644Z,19.80
2018-07-10T17:54:05.594Z,19.80
2018-07-10T17:56:33.707Z,20.00
2018-07-10T17:59:03.392Z,20.00
2018-07-10T18:01:30.770Z,19.90
2018-07-10T18:03:58.021Z,19.90
2018-07-10T18:06:25.354Z,20.10
2018-07-10T18:08:54.215Z,20.20
2018-07-10T18:11:21.453Z,20.20
2018-07-10T18:13:48.996Z,20.10
2018-07-10T18:16:16.192Z,20.10
2018-07-10T18:18:43.443Z,20.30
2018-07-10T18:21:10.615Z,20.50
2018-07-10T18:23:38.108Z,20.90
2018-07-10T18:26:05.413Z,20.90
2018-07-10T18:28:32.585Z,20.90
2018-07-10T18:30:59.844Z,20.80
2018-07-10T18:33:27.045Z,20.60
2018-07-10T18:35:54.247Z,20.40
2018-07-10T18:38:21.798Z,20.30
2018-07-10T18:40:49.118Z,20.30
2018-07-10T18:43:16.291Z,20.20
2018-07-10T18:45:43.578Z,20.10
2018-07-10T18:48:10.826Z,20.10
2018-07-10T18:50:38.219Z,20.10
2018-07-10T18:53:05.439Z,20.10
2018-07-10T18:55:32.613Z,20.10
2018-07-10T18:58:05.378Z,20.00
2018-07-10T19:19:45.624Z,19.60
2018-07-10T19:22:15.281Z,19.60
2018-07-10T19:24:42.995Z,19.50
2018-07-10T19:27:27.291Z,19.70
2018-07-10T19:29:56.073Z,19.70
2018-07-10T19:32:23.597Z,19.60
2018-07-10T19:34:55.161Z,19.70
2018-07-10T19:37:26.089Z,19.70
2018-07-10T19:39:53.768Z,19.60
2018-07-10T19:42:21.136Z,19.50
2018-07-10T19:44:49.847Z,19.50
2018-07-10T19:47:17.652Z,19.50
2018-07-10T19:49:46.933Z,19.50
2018-07-10T19:52:14.730Z,19.50
2018-07-10T19:54:43.365Z,19.50
2018-07-10T19:59:39.203Z,19.50
2018-07-10T20:02:06.845Z,19.60
2018-07-10T20:07:11.044Z,19.30
2018-07-10T20:10:16.635Z,19.20
2018-07-10T20:13:10.587Z,19.10
2018-07-10T20:15:55.830Z,19.00
2018-07-10T20:18:36.426Z,18.80
2018-07-10T20:21:18.649Z,18.80
2018-07-10T20:23:56.654Z,18.70
2018-07-10T20:28:36.627Z,18.60
2018-07-10T20:31:13.865Z,18.60
2018-07-10T20:36:18.605Z,18.30
2018-07-10T20:38:45.936Z,17.90
2018-07-10T20:41:13.267Z,17.50
2018-07-10T20:43:44.676Z,17.10
2018-07-10T20:46:14.271Z,16.90
2018-07-10T20:48:55.318Z,16.90
2018-07-10T20:51:31.072Z,17.00
2018-07-10T20:54:15.453Z,16.80
2018-07-10T20:57:04.133Z,16.80
2018-07-10T20:59:40.374Z,16.70
2018-07-10T21:02:22.029Z,16.70
2018-07-10T21:04:57.430Z,16.60
2018-07-10T21:07:30.898Z,16.70
2018-07-10T21:14:16.807Z,17.10
2018-07-10T21:16:53.852Z,17.10
2018-07-10T21:19:29.047Z,17.20
2018-07-10T21:22:04.576Z,17.20
2018-07-10T21:27:04.683Z,17.10
2018-07-10T21:29:43.330Z,17.20
2018-07-10T21:32:20.754Z,17.20
2018-07-10T21:34:49.192Z,17.30
2018-07-10T21:39:28.709Z,17.40
2018-07-10T21:42:07.428Z,17.40
2018-07-10T21:46:47.407Z,17.40
2018-07-10T21:49:49.235Z,17.30
2018-07-10T21:54:43.869Z,17.10
2018-07-10T21:57:13.406Z,17.10
2018-07-10T21:59:49.427Z,17.00
2018-07-10T22:02:17.201Z,16.90
2018-07-10T22:04:45.574Z,16.80
2018-07-10T22:07:13.974Z,16.80
2018-07-10T22:09:41.590Z,16.70
2018-07-10T22:12:10.300Z,16.70
2018-07-10T22:14:37.468Z,16.60
2018-07-10T22:17:05.694Z,16.50
2018-07-10T22:19:34.383Z,16.50
2018-07-10T22:22:01.438Z,16.50
2018-07-10T22:24:28.569Z,16.50
2018-07-10T22:26:56.505Z,16.50
2018-07-10T22:29:29.334Z,16.40
2018-07-10T22:31:58.204Z,16.40
2018-07-10T22:34:25.648Z,16.40
2018-07-10T22:36:52.964Z,16.50
2018-07-10T22:39:20.232Z,16.50
2018-07-10T22:44:14.532Z,16.40
2018-07-10T22:49:08.785Z,16.20
2018-07-10T22:51:35.923Z,16.10
2018-07-10T22:54:03.500Z,16.20
2018-07-10T22:56:31.796Z,16.10
2018-07-10T22:58:59.028Z,16.20
2018-07-10T23:01:26.184Z,16.30
2018-07-10T23:03:53.960Z,16.30
2018-07-10T23:06:21.083Z,16.30
2018-07-10T23:08:48.201Z,16.30
2018-07-10T23:11:15.209Z,16.30
2018-07-10T23:13:44.163Z,16.10
2018-07-10T23:16:11.339Z,16.10
2018-07-10T23:18:38.922Z,16.10
2018-07-10T23:21:06.024Z,16.10
2018-07-10T23:40:14.748Z,16.30
2018-07-10T23:42:41.803Z,16.20
2018-07-10T23:47:40.023Z,16.20
2018-07-10T23:50:20.100Z,16.20
2018-07-10T23:53:53.807Z,16.30
2018-07-10T23:56:21.256Z,16.20
2018-07-10T23:58:48.659Z,16.10
